createdAt,value
2019-05-01T00:01:15.754Z,30.43
2019-05-01T00:04:05.193Z,28.90
2019-05-01T00:06:45.035Z,29.33
2019-05-01T00:09:16.993Z,30.50
2019-05-01T00:11:49.674Z,30.43
2019-05-01T00:14:22.713Z,30.73
2019-05-01T00:16:55.149Z,30.20
2019-05-01T00:19:26.883Z,29.97
2019-05-01T00:21:59.025Z,31.10
2019-05-01T00:24:32.218Z,29.67
2019-05-01T00:27:20.438Z,30.40
2019-05-01T00:29:59.617Z,31.07
2019-05-01T00:32:29.870Z,30.40
2019-05-01T00:35:01.778Z,31.33
2019-05-01T00:37:32.522Z,31.83
2019-05-01T00:40:03.638Z,31.70
2019-05-01T00:42:34.308Z,29.77
2019-05-01T00:45:08.260Z,30.53
2019-05-01T00:47:40.125Z,30.87
2019-05-01T00:50:11.589Z,31.00
2019-05-01T00:52:42.814Z,32.60
2019-05-01T00:55:33.373Z,33.53
2019-05-01T00:58:17.020Z,31.70
2019-05-01T01:00:57.458Z,32.37
2019-05-01T01:03:29.377Z,33.13
2019-05-01T01:06:00.293Z,32.23
2019-05-01T01:08:35.299Z,34.07
2019-05-01T01:11:07.834Z,31.80
2019-05-01T01:13:38.023Z,33.33
2019-05-01T01:16:11.967Z,32.43
2019-05-01T01:18:43.499Z,34.17
2019-05-01T01:21:14.435Z,34.07
2019-05-01T01:23:47.613Z,32.80
2019-05-01T01:26:18.561Z,33.57
2019-05-01T01:28:50.604Z,34.73
2019-05-01T01:31:22.919Z,35.23
2019-05-01T01:33:53.198Z,35.07
2019-05-01T01:36:23.391Z,35.57
2019-05-01T01:38:53.957Z,36.20
2019-05-01T01:41:25.143Z,33.40
2019-05-01T01:44:23.470Z,34.10
2019-05-01T01:46:57.071Z,33.77
2019-05-01T01:49:27.826Z,36.93
2019-05-01T01:52:00.639Z,35.37
2019-05-01T01:54:33.616Z,37.07
2019-05-01T01:57:05.874Z,36.23
2019-05-01T01:59:37.605Z,36.13
2019-05-01T02:02:17.771Z,35.83
2019-05-01T02:05:24.913Z,34.27
2019-05-01T02:07:58.269Z,36.30
2019-05-01T02:10:42.264Z,37.53
2019-05-01T02:13:03.835Z,35.90
2019-05-01T02:15:35.108Z,36.37
2019-05-01T02:18:05.886Z,35.67
2019-05-01T02:20:39.972Z,37.17
2019-05-01T02:23:11.792Z,37.03
2019-05-01T02:25:46.814Z,35.97
2019-05-01T02:28:29.027Z,37.57
2019-05-01T02:31:29.304Z,36.83
2019-05-01T02:34:02.541Z,37.30
2019-05-01T02:36:37.448Z,37.70
2019-05-01T02:39:12.837Z,35.27
2019-05-01T02:41:46.138Z,38.67
2019-05-01T02:44:21.612Z,37.77
2019-05-01T02:46:55.172Z,38.00
2019-05-01T02:49:39.113Z,37.13
2019-05-01T02:52:12.862Z,36.20
2019-05-01T02:54:47.851Z,39.40
2019-05-01T02:57:25.054Z,37.10
2019-05-01T02:59:59.258Z,37.67
2019-05-01T03:02:35.395Z,36.87
2019-05-01T03:05:08.614Z,37.73
2019-05-01T03:07:46.268Z,38.17
2019-05-01T03:10:19.115Z,36.87
2019-05-01T03:12:52.987Z,38.10
2019-05-01T03:15:28.434Z,37.73
2019-05-01T03:18:26.546Z,38.23
2019-05-01T03:21:22.438Z,38.90
2019-05-01T03:23:58.337Z,38.77
2019-05-01T03:26:31.182Z,37.97
2019-05-01T03:29:02.773Z,38.30
2019-05-01T03:31:33.613Z,38.60
2019-05-01T03:34:08.883Z,38.87
2019-05-01T03:36:41.295Z,38.77
2019-05-01T03:39:12.074Z,38.50
2019-05-01T03:41:44.421Z,38.83
2019-05-01T03:44:17.975Z,38.90
2019-05-01T03:46:51.829Z,38.63
2019-05-01T03:49:23.314Z,38.73
2019-05-01T03:51:54.170Z,39.60
2019-05-01T03:54:35.372Z,41.17
2019-05-01T03:57:06.116Z,38.87
2019-05-01T03:59:47.231Z,39.23
2019-05-01T04:02:34.168Z,41.00
2019-05-01T04:05:06.762Z,40.33
2019-05-01T04:07:39.065Z,40.93
2019-05-01T04:10:11.960Z,41.43
2019-05-01T04:12:45.347Z,41.03
2019-05-01T04:15:16.286Z,41.70
2019-05-01T04:17:55.411Z,39.57
2019-05-01T04:20:28.000Z,40.97
2019-05-01T04:23:00.578Z,43.33
2019-05-01T04:25:31.997Z,43.33
2019-05-01T04:28:22.831Z,42.83
2019-05-01T04:31:14.894Z,46.93
2019-05-01T04:33:56.659Z,49.93
2019-05-01T04:36:35.952Z,51.17
2019-05-01T04:39:12.103Z,54.70
2019-05-01T04:41:45.802Z,54.77
2019-05-01T04:44:17.554Z,54.03
2019-05-01T04:46:49.259Z,54.30
2019-05-01T04:49:21.374Z,54.57
2019-05-01T04:51:52.537Z,57.10
2019-05-01T04:54:23.596Z,55.53
2019-05-01T04:56:56.408Z,54.63
2019-05-01T04:59:28.105Z,54.47
2019-05-01T05:02:04.508Z,51.70
2019-05-01T05:04:36.583Z,49.10
2019-05-01T05:07:06.763Z,54.27
2019-05-01T05:09:47.728Z,58.83
2019-05-01T05:12:31.687Z,55.97
2019-05-01T05:15:19.674Z,57.50
2019-05-01T05:17:51.301Z,59.10
2019-05-01T05:20:23.092Z,56.30
2019-05-01T05:22:55.860Z,55.07
2019-05-01T05:25:27.818Z,56.97
2019-05-01T05:28:00.440Z,55.50
2019-05-01T05:30:38.898Z,56.87
2019-05-01T05:33:18.641Z,58.93
2019-05-01T05:35:51.430Z,54.50
2019-05-01T05:38:44.202Z,55.20
2019-05-01T05:41:16.392Z,56.73
2019-05-01T05:43:48.476Z,59.03
2019-05-01T05:46:20.624Z,62.33
2019-05-01T05:48:52.436Z,60.30
2019-05-01T05:51:44.234Z,60.97
2019-05-01T05:54:43.392Z,60.00
2019-05-01T05:57:30.008Z,60.97
2019-05-01T06:00:26.538Z,60.50
2019-05-01T06:03:32.451Z,59.97
2019-05-01T06:06:53.114Z,60.00
2019-05-01T06:09:34.440Z,58.63
2019-05-01T06:12:25.941Z,59.97
2019-05-01T06:15:09.789Z,61.20
2019-05-01T06:17:46.650Z,62.03
2019-05-01T06:20:41.637Z,57.77
2019-05-01T06:23:45.000Z,57.83
2019-05-01T06:26:37.416Z,60.27
2019-05-01T06:29:07.416Z,63.43
2019-05-01T06:31:39.792Z,65.70
2019-05-01T06:34:10.241Z,61.43
2019-05-01T06:36:49.648Z,68.53
2019-05-01T06:39:26.826Z,63.17
2019-05-01T06:42:00.548Z,63.23
2019-05-01T06:44:44.314Z,71.20
2019-05-01T06:47:43.144Z,69.03
2019-05-01T06:50:27.285Z,68.67
2019-05-01T06:52:59.993Z,70.53
2019-05-01T06:55:34.248Z,70.10
2019-05-01T06:58:04.989Z,65.77
2019-05-01T07:00:39.191Z,67.90
2019-05-01T07:03:10.459Z,67.87
2019-05-01T07:05:44.645Z,63.47
2019-05-01T07:08:24.327Z,66.67
2019-05-01T07:10:48.488Z,64.73
2019-05-01T07:13:19.460Z,60.67
2019-05-01T07:15:51.705Z,63.60
2019-05-01T07:18:24.103Z,64.43
2019-05-01T07:20:55.837Z,65.70
2019-05-01T07:23:27.418Z,68.90
2019-05-01T07:25:58.448Z,64.47
2019-05-01T07:28:34.378Z,66.13
2019-05-01T07:31:08.049Z,69.07
2019-05-01T07:33:40.216Z,66.17
2019-05-01T07:36:16.540Z,68.07
2019-05-01T07:38:52.150Z,64.77
2019-05-01T07:41:23.737Z,68.40
2019-05-01T07:44:21.120Z,65.53
2019-05-01T07:47:16.990Z,67.83
2019-05-01T07:50:00.449Z,68.73
2019-05-01T07:52:31.181Z,63.93
2019-05-01T07:55:02.874Z,59.87
2019-05-01T07:57:39.259Z,60.87
2019-05-01T08:00:12.793Z,58.77
2019-05-01T08:02:45.289Z,60.63
2019-05-01T08:05:21.948Z,59.73
2019-05-01T08:07:54.807Z,57.10
2019-05-01T08:10:30.647Z,56.67
2019-05-01T08:13:00.511Z,55.90
2019-05-01T08:15:32.672Z,56.67
2019-05-01T08:18:24.104Z,56.67
2019-05-01T08:21:11.757Z,55.97
2019-05-01T08:23:47.187Z,53.23
2019-05-01T08:26:17.899Z,53.80
2019-05-01T08:29:08.151Z,54.90
2019-05-01T08:31:51.016Z,55.40
2019-05-01T08:34:25.348Z,56.80
2019-05-01T08:36:59.657Z,56.63
2019-05-01T08:39:30.825Z,57.87
2019-05-01T08:42:07.030Z,61.63
2019-05-01T08:44:44.739Z,59.17
2019-05-01T08:47:27.858Z,58.23
2019-05-01T08:50:15.352Z,66.53
2019-05-01T08:52:48.760Z,70.87
2019-05-01T08:55:20.146Z,70.50
2019-05-01T08:57:54.998Z,63.00
2019-05-01T09:00:26.385Z,61.70
2019-05-01T09:03:07.895Z,61.33
2019-05-01T09:05:33.634Z,65.67
2019-05-01T09:08:01.828Z,67.77
2019-05-01T09:10:32.976Z,67.70
2019-05-01T09:13:05.298Z,70.10
2019-05-01T09:15:35.845Z,66.10
2019-05-01T09:18:06.889Z,67.10
2019-05-01T09:20:39.670Z,62.43
2019-05-01T09:23:14.381Z,62.10
2019-05-01T09:26:14.751Z,59.10
2019-05-01T09:28:47.787Z,57.30
2019-05-01T09:31:21.236Z,58.53
2019-05-01T09:33:52.530Z,55.90
2019-05-01T09:36:24.361Z,56.13
2019-05-01T09:38:56.589Z,56.97
2019-05-01T09:41:38.058Z,55.63
2019-05-01T09:44:01.471Z,57.63
2019-05-01T09:46:34.681Z,56.27
2019-05-01T09:49:05.635Z,56.90
2019-05-01T09:51:55.911Z,56.43
2019-05-01T09:54:46.695Z,61.17
2019-05-01T09:57:17.985Z,60.10
2019-05-01T09:59:49.825Z,56.73
2019-05-01T10:02:22.407Z,60.97
2019-05-01T10:04:54.990Z,57.47
2019-05-01T10:07:28.881Z,58.03
2019-05-01T10:09:59.733Z,58.80
2019-05-01T10:12:31.561Z,60.93
2019-05-01T10:15:05.356Z,59.80
2019-05-01T10:17:36.092Z,60.67
2019-05-01T10:20:07.552Z,62.17
2019-05-01T10:22:41.135Z,61.53
2019-05-01T10:25:24.200Z,60.90
2019-05-01T10:28:07.240Z,62.33
2019-05-01T10:30:50.860Z,59.27
2019-05-01T10:33:28.974Z,59.53
2019-05-01T10:36:18.716Z,60.40
2019-05-01T10:38:51.063Z,60.80
2019-05-01T10:41:25.259Z,61.47
2019-05-01T10:43:59.952Z,65.00
2019-05-01T10:46:32.770Z,63.50
2019-05-01T10:49:06.441Z,61.20
2019-05-01T10:51:37.401Z,62.80
2019-05-01T10:54:08.972Z,62.27
2019-05-01T10:56:45.201Z,61.90
2019-05-01T10:59:16.805Z,62.23
2019-05-01T11:01:56.653Z,64.20
2019-05-01T11:04:29.765Z,61.40
2019-05-01T11:07:01.144Z,62.27
2019-05-01T11:09:32.166Z,61.13
2019-05-01T11:12:03.277Z,62.70
2019-05-01T11:14:34.076Z,60.43
2019-05-01T11:17:04.934Z,61.10
2019-05-01T11:19:39.925Z,58.70
2019-05-01T11:22:10.297Z,61.63
2019-05-01T11:24:44.011Z,61.80
2019-05-01T11:27:15.474Z,62.07
2019-05-01T11:29:47.416Z,62.17
2019-05-01T11:32:30.877Z,63.30
2019-05-01T11:35:21.233Z,65.03
2019-05-01T11:38:03.004Z,62.13
2019-05-01T11:40:37.691Z,64.67
2019-05-01T11:43:08.520Z,63.57
2019-05-01T11:45:40.058Z,62.97
2019-05-01T11:48:11.689Z,63.90
2019-05-01T11:50:47.216Z,62.70
2019-05-01T11:53:19.287Z,66.67
2019-05-01T11:55:55.351Z,63.97
2019-05-01T11:58:27.766Z,65.77
2019-05-01T12:01:00.959Z,65.17
2019-05-01T12:03:32.123Z,62.33
2019-05-01T12:06:04.133Z,63.50
2019-05-01T12:08:34.766Z,62.43
2019-05-01T12:11:09.515Z,67.17
2019-05-01T12:13:43.987Z,65.27
2019-05-01T12:16:24.038Z,64.50
2019-05-01T12:18:55.214Z,65.03
2019-05-01T12:21:31.079Z,63.33
2019-05-01T12:24:01.270Z,66.03
2019-05-01T12:26:33.406Z,65.67
2019-05-01T12:29:06.191Z,64.47
2019-05-01T12:31:37.328Z,58.83
2019-05-01T12:34:09.543Z,61.47
2019-05-01T12:36:44.595Z,65.80
2019-05-01T12:39:17.204Z,61.87
2019-05-01T12:41:56.202Z,63.10
2019-05-01T12:44:27.189Z,62.40
2019-05-01T12:47:08.467Z,62.97
2019-05-01T12:49:40.744Z,62.97
2019-05-01T12:52:19.336Z,59.93
2019-05-01T12:54:59.988Z,61.40
2019-05-01T12:57:30.676Z,61.97
2019-05-01T13:00:08.976Z,61.87
2019-05-01T13:02:38.018Z,65.00
2019-05-01T13:05:25.527Z,62.73
2019-05-01T13:07:58.857Z,63.10
2019-05-01T13:10:32.047Z,63.30
2019-05-01T13:13:05.699Z,61.33
2019-05-01T13:15:35.881Z,64.20
2019-05-01T13:18:06.719Z,60.48
2019-05-01T13:20:37.736Z,61.17
2019-05-01T13:23:09.595Z,62.45
2019-05-01T13:25:39.791Z,59.53
2019-05-01T13:28:38.655Z,62.38
2019-05-01T13:31:21.342Z,61.95
2019-05-01T13:33:52.525Z,62.83
2019-05-01T13:36:23.059Z,59.40
2019-05-01T13:38:54.115Z,61.23
2019-05-01T13:41:24.763Z,60.70
2019-05-01T13:43:55.052Z,59.35
2019-05-01T13:46:25.257Z,60.95
2019-05-01T13:48:55.456Z,56.13
2019-05-01T13:51:27.459Z,57.25
2019-05-01T13:53:58.010Z,56.75
2019-05-01T13:56:28.623Z,56.23
2019-05-01T13:59:05.380Z,54.45
2019-05-01T14:01:37.825Z,57.45
2019-05-01T14:04:10.364Z,53.50
2019-05-01T14:06:44.548Z,53.15
2019-05-01T14:09:22.879Z,52.20
2019-05-01T14:11:53.391Z,51.83
2019-05-01T14:14:25.533Z,51.83
2019-05-01T14:16:56.062Z,50.80
2019-05-01T14:19:28.635Z,49.13
2019-05-01T14:22:24.236Z,50.08
2019-05-01T14:24:57.980Z,49.48
2019-05-01T14:27:31.543Z,47.10
2019-05-01T14:30:04.488Z,46.40
2019-05-01T14:32:36.189Z,44.30
2019-05-01T14:35:09.509Z,44.13
2019-05-01T14:37:41.593Z,44.98
2019-05-01T14:40:12.768Z,42.58
2019-05-01T14:42:45.159Z,37.13
2019-05-01T14:45:19.025Z,41.73
2019-05-01T14:47:50.365Z,34.90
2019-05-01T14:50:23.040Z,38.00
2019-05-01T14:52:54.919Z,39.42
2019-05-01T14:55:27.172Z,36.88
2019-05-01T14:57:59.262Z,36.48
2019-05-01T15:00:30.212Z,34.60
2019-05-01T15:03:02.734Z,34.98
2019-05-01T15:05:38.405Z,33.30
2019-05-01T15:08:09.205Z,40.63
2019-05-01T15:10:41.993Z,34.10
2019-05-01T15:13:26.720Z,34.05
2019-05-01T15:16:23.192Z,37.50
2019-05-01T15:19:12.319Z,30.72
2019-05-01T15:21:44.480Z,34.65
2019-05-01T15:24:15.995Z,31.80
2019-05-01T15:26:47.467Z,33.90
2019-05-01T15:29:20.157Z,36.70
2019-05-01T15:31:53.527Z,40.15
2019-05-01T15:34:24.525Z,36.95
2019-05-01T15:36:57.313Z,41.48
2019-05-01T15:39:36.220Z,39.05
2019-05-01T15:42:28.218Z,38.33
2019-05-01T15:45:01.086Z,37.63
2019-05-01T15:47:34.252Z,42.35
2019-05-01T15:50:05.682Z,40.30
2019-05-01T15:52:36.669Z,41.90
2019-05-01T15:55:07.716Z,42.00
2019-05-01T15:57:38.034Z,38.00
2019-05-01T16:00:12.187Z,43.73
2019-05-01T16:02:45.333Z,40.63
2019-05-01T16:05:18.032Z,41.23
2019-05-01T16:07:49.380Z,41.07
2019-05-01T16:10:24.345Z,41.37
2019-05-01T16:13:00.607Z,40.80
2019-05-01T16:15:34.944Z,41.87
2019-05-01T16:18:06.452Z,42.13
2019-05-01T16:20:40.790Z,42.97
2019-05-01T16:23:13.676Z,39.57
2019-05-01T16:25:45.841Z,40.80
2019-05-01T16:28:19.386Z,41.67
2019-05-01T16:30:50.491Z,42.27
2019-05-01T16:33:23.227Z,41.13
2019-05-01T16:35:53.852Z,40.23
2019-05-01T16:38:34.578Z,39.87
2019-05-01T16:41:08.523Z,40.20
2019-05-01T16:43:40.470Z,40.93
2019-05-01T16:46:11.138Z,42.10
2019-05-01T16:48:43.378Z,41.60
2019-05-01T16:51:14.413Z,40.90
2019-05-01T16:53:45.045Z,37.03
2019-05-01T16:56:15.284Z,38.93
2019-05-01T16:58:45.800Z,41.37
2019-05-01T17:01:31.272Z,39.97
2019-05-01T17:04:06.628Z,39.57
2019-05-01T17:06:57.824Z,40.83
2019-05-01T17:09:46.501Z,38.13
2019-05-01T17:12:21.979Z,38.03
2019-05-01T17:14:53.993Z,40.50
2019-05-01T17:17:25.465Z,40.37
2019-05-01T17:19:56.716Z,38.87
2019-05-01T17:22:31.009Z,38.37
2019-05-01T17:25:03.417Z,37.73
2019-05-01T17:27:35.806Z,38.10
2019-05-01T17:30:15.149Z,38.10
2019-05-01T17:32:48.430Z,39.03
2019-05-01T17:35:21.122Z,38.67
2019-05-01T17:37:52.632Z,39.80
2019-05-01T17:40:24.421Z,39.37
2019-05-01T17:42:55.024Z,40.73
2019-05-01T17:45:29.977Z,40.63
2019-05-01T17:48:01.802Z,40.03
2019-05-01T17:50:34.712Z,42.40
2019-05-01T17:53:06.493Z,40.20
2019-05-01T17:55:37.833Z,40.63
2019-05-01T17:58:11.187Z,39.60
2019-05-01T18:00:59.775Z,40.93
2019-05-01T18:03:55.819Z,42.47
2019-05-01T18:06:31.270Z,40.57
2019-05-01T18:09:08.228Z,41.03
2019-05-01T18:11:37.242Z,42.83
2019-05-01T18:14:07.969Z,39.63
2019-05-01T18:16:40.513Z,41.40
2019-05-01T18:19:11.977Z,42.93
2019-05-01T18:21:51.249Z,42.03
2019-05-01T18:24:58.429Z,42.80
2019-05-01T18:27:49.805Z,43.20
2019-05-01T18:30:21.947Z,42.67
2019-05-01T18:32:53.530Z,44.50
2019-05-01T18:35:30.982Z,44.53
2019-05-01T18:38:20.644Z,42.77
2019-05-01T18:40:58.101Z,41.40
2019-05-01T18:43:32.085Z,42.07
2019-05-01T18:46:02.127Z,42.23
2019-05-01T18:48:33.124Z,41.63
2019-05-01T18:51:03.878Z,44.60
2019-05-01T18:53:34.867Z,42.33
2019-05-01T18:56:09.641Z,45.47
2019-05-01T18:58:41.615Z,43.77
2019-05-01T19:01:15.528Z,41.90
2019-05-01T19:03:47.906Z,42.63
2019-05-01T19:06:20.100Z,43.73
2019-05-01T19:08:51.446Z,41.70
2019-05-01T19:11:26.013Z,44.83
2019-05-01T19:14:00.767Z,44.17
2019-05-01T19:16:31.138Z,43.20
2019-05-01T19:19:04.491Z,43.10
2019-05-01T19:21:36.079Z,44.17
2019-05-01T19:24:06.693Z,47.10
2019-05-01T19:26:46.671Z,47.20
2019-05-01T19:29:26.892Z,43.50
2019-05-01T19:31:59.234Z,43.97
2019-05-01T19:34:32.144Z,45.87
2019-05-01T19:37:04.602Z,45.57
2019-05-01T19:39:43.418Z,46.27
2019-05-01T19:42:08.939Z,44.70
2019-05-01T19:44:40.984Z,42.33
2019-05-01T19:47:11.342Z,44.57
2019-05-01T19:50:07.482Z,46.03
2019-05-01T19:52:39.913Z,43.97
2019-05-01T19:55:11.182Z,44.03
2019-05-01T19:57:41.810Z,44.37
2019-05-01T20:00:13.475Z,45.00
2019-05-01T20:02:46.678Z,46.53
2019-05-01T20:05:21.986Z,47.47
2019-05-01T20:07:51.142Z,46.43
2019-05-01T20:10:23.994Z,44.60
2019-05-01T20:12:55.416Z,45.57
2019-05-01T20:15:26.629Z,45.80
2019-05-01T20:17:58.411Z,44.33
2019-05-01T20:20:29.144Z,45.17
2019-05-01T20:23:06.483Z,44.50
2019-05-01T20:25:38.714Z,46.60
2019-05-01T20:28:10.695Z,46.43
2019-05-01T20:30:41.591Z,47.60
2019-05-01T20:33:12.539Z,47.70
2019-05-01T20:35:46.490Z,46.60
2019-05-01T20:38:17.181Z,45.30
2019-05-01T20:40:47.790Z,45.83
2019-05-01T20:43:20.599Z,45.93
2019-05-01T20:45:53.098Z,46.70
2019-05-01T20:48:25.193Z,45.87
2019-05-01T20:50:57.067Z,45.10
2019-05-01T20:53:28.376Z,47.00
2019-05-01T20:56:05.807Z,47.67
2019-05-01T20:58:36.813Z,46.37
2019-05-01T21:01:08.529Z,45.63
2019-05-01T21:03:41.739Z,47.60
2019-05-01T21:06:21.559Z,48.63
2019-05-01T21:09:13.882Z,46.87
2019-05-01T21:12:04.193Z,47.40
2019-05-01T21:14:25.093Z,47.47
2019-05-01T21:16:57.423Z,47.60
2019-05-01T21:19:32.509Z,49.33
2019-05-01T21:22:07.677Z,47.90
2019-05-01T21:24:39.792Z,48.87
2019-05-01T21:27:10.680Z,47.73
2019-05-01T21:29:40.928Z,47.77
2019-05-01T21:32:17.943Z,49.43
2019-05-01T21:34:46.626Z,47.40
2019-05-01T21:37:19.046Z,50.63
2019-05-01T21:39:50.451Z,49.73
2019-05-01T21:42:21.554Z,50.27
2019-05-01T21:45:07.721Z,50.83
2019-05-01T21:47:42.540Z,51.20
2019-05-01T21:50:17.849Z,51.27
2019-05-01T21:52:48.502Z,50.47
2019-05-01T21:55:20.540Z,51.97
2019-05-01T21:57:55.121Z,50.10
2019-05-01T22:00:29.222Z,50.63
2019-05-01T22:03:03.071Z,50.07
2019-05-01T22:05:39.351Z,49.87
2019-05-01T22:08:09.435Z,49.17
2019-05-01T22:10:51.770Z,51.33
2019-05-01T22:13:20.416Z,50.80
2019-05-01T22:15:56.032Z,50.50
2019-05-01T22:18:37.300Z,51.70
2019-05-01T22:21:13.393Z,51.50
2019-05-01T22:24:04.193Z,52.30
2019-05-01T22:26:39.571Z,51.07
2019-05-01T22:29:13.368Z,52.77
2019-05-01T22:31:57.448Z,50.50
2019-05-01T22:34:38.634Z,53.17
2019-05-01T22:37:09.756Z,51.00
2019-05-01T22:39:43.307Z,51.37
2019-05-01T22:42:13.485Z,53.47
2019-05-01T22:44:44.470Z,51.17
2019-05-01T22:47:16.371Z,50.70
2019-05-01T22:49:51.024Z,54.30
2019-05-01T22:52:21.633Z,53.40
2019-05-01T22:54:52.556Z,52.67
2019-05-01T22:57:24.966Z,52.07
2019-05-01T22:59:57.078Z,54.37
2019-05-01T23:02:39.253Z,52.03
2019-05-01T23:05:11.900Z,54.47
2019-05-01T23:07:43.249Z,53.83
2019-05-01T23:10:13.863Z,54.13
2019-05-01T23:12:44.990Z,53.67
2019-05-01T23:15:21.433Z,55.00
2019-05-01T23:17:53.325Z,55.70
2019-05-01T23:20:29.577Z,54.67
2019-05-01T23:23:00.074Z,53.57
2019-05-01T23:25:36.584Z,53.97
2019-05-01T23:28:06.027Z,52.83
2019-05-01T23:30:37.036Z,54.00
2019-05-01T23:33:07.362Z,54.23
2019-05-01T23:35:41.757Z,56.20
2019-05-01T23:38:16.236Z,53.40
2019-05-01T23:40:50.975Z,53.93
2019-05-01T23:43:23.083Z,55.93
2019-05-01T23:45:57.116Z,53.83
2019-05-01T23:48:29.609Z,54.43
2019-05-01T23:51:02.614Z,54.43
2019-05-01T23:53:33.462Z,55.67
2019-05-01T23:56:06.715Z,54.17
2019-05-01T23:58:38.698Z,54.63
